createdAt,value
2018-01-17T00:01:06.520Z,81.40
2018-01-17T00:03:34.639Z,81.30
2018-01-17T00:06:02.743Z,81.40
2018-01-17T00:08:30.880Z,81.50
2018-01-17T00:10:58.999Z,81.60
2018-01-17T00:13:27.123Z,81.60
2018-01-17T00:15:55.301Z,81.50
2018-01-17T00:18:23.403Z,81.00
2018-01-17T00:20:51.523Z,81.60
2018-01-17T00:23:20.403Z,80.90
2018-01-17T00:25:49.292Z,80.30
2018-01-17T00:28:17.391Z,80.30
2018-01-17T00:30:45.559Z,80.90
2018-01-17T00:33:13.745Z,80.20
2018-01-17T00:35:42.614Z,80.20
2018-01-17T00:38:12.107Z,80.80
2018-01-17T00:40:40.979Z,80.80
2018-01-17T00:43:09.099Z,80.00
2018-01-17T00:45:37.238Z,80.20
2018-01-17T00:48:06.383Z,80.50
2018-01-17T00:50:34.507Z,80.60
2018-01-17T00:53:02.625Z,80.90
2018-01-17T00:55:30.751Z,80.20
2018-01-17T00:57:58.931Z,80.20
2018-01-17T01:00:27.035Z,80.20
2018-01-17T01:02:55.136Z,80.40
2018-01-17T01:05:23.285Z,80.70
2018-01-17T01:07:51.520Z,81.40
2018-01-17T01:10:19.634Z,80.20
2018-01-17T01:12:47.797Z,79.80
2018-01-17T01:15:16.675Z,81.00
2018-01-17T01:17:44.779Z,81.00
2018-01-17T01:20:12.925Z,80.50
2018-01-17T01:22:41.799Z,82.00
2018-01-17T01:25:09.931Z,81.70
2018-01-17T01:27:38.093Z,84.10
2018-01-17T01:30:06.216Z,84.40
2018-01-17T01:32:34.348Z,84.90
2018-01-17T01:35:02.459Z,84.50
2018-01-17T01:37:30.627Z,85.20
2018-01-17T01:39:58.749Z,85.20
2018-01-17T01:42:26.923Z,83.10
2018-01-17T01:44:55.011Z,84.60
2018-01-17T01:47:23.135Z,85.10
2018-01-17T01:49:52.008Z,85.80
2018-01-17T01:52:20.143Z,86.00
2018-01-17T01:54:48.267Z,86.00
2018-01-17T01:57:16.843Z,85.10
2018-01-17T01:59:45.068Z,86.00
2018-01-17T02:02:13.201Z,85.00
2018-01-17T02:07:16.500Z,83.90
2018-01-17T02:09:44.631Z,84.10
2018-01-17T02:12:12.799Z,83.70
2018-01-17T02:14:40.888Z,83.50
2018-01-17T02:17:09.022Z,83.90
2018-01-17T02:19:37.128Z,83.20
2018-01-17T02:22:05.393Z,83.30
2018-01-17T02:24:33.491Z,82.00
2018-01-17T02:27:01.644Z,81.50
2018-01-17T02:29:29.763Z,81.10
2018-01-17T02:31:57.867Z,80.60
2018-01-17T02:34:26.769Z,79.80
2018-01-17T02:36:54.862Z,79.90
2018-01-17T02:39:22.991Z,79.40
2018-01-17T02:41:51.911Z,77.80
2018-01-17T02:44:20.791Z,77.90
2018-01-17T02:46:49.078Z,77.70
2018-01-17T02:49:17.935Z,78.60
2018-01-17T02:51:46.076Z,78.50
2018-01-17T02:54:14.219Z,78.10
2018-01-17T02:56:42.328Z,77.10
2018-01-17T02:59:10.440Z,76.90
2018-01-17T03:01:39.339Z,77.30
2018-01-17T03:04:08.212Z,77.10
2018-01-17T03:06:36.323Z,77.20
2018-01-17T03:09:04.461Z,77.00
2018-01-17T03:11:33.381Z,77.00
2018-01-17T03:14:02.374Z,77.50
2018-01-17T03:16:31.235Z,78.80
2018-01-17T03:19:00.099Z,78.60
2018-01-17T03:21:28.251Z,78.30
2018-01-17T03:23:56.505Z,78.40
2018-01-17T03:26:25.379Z,78.50
2018-01-17T03:28:54.250Z,79.00
2018-01-17T03:31:22.357Z,78.90
2018-01-17T03:33:50.475Z,79.20
2018-01-17T03:36:18.605Z,78.80
2018-01-17T03:38:47.497Z,78.80
2018-01-17T03:41:15.600Z,78.80
2018-01-17T03:43:43.710Z,78.70
2018-01-17T03:46:12.608Z,77.80
2018-01-17T03:48:41.491Z,77.10
2018-01-17T03:51:10.440Z,77.00
2018-01-17T03:53:38.504Z,77.00
2018-01-17T03:56:06.612Z,76.10
2018-01-17T03:58:34.731Z,76.20
2018-01-17T04:01:02.848Z,75.60
2018-01-17T04:03:30.981Z,75.00
2018-01-17T04:05:59.156Z,74.60
2018-01-17T04:08:27.247Z,74.60
2018-01-17T04:10:55.398Z,74.50
2018-01-17T04:13:24.260Z,73.30
2018-01-17T04:15:53.159Z,73.60
2018-01-17T04:18:22.039Z,74.00
2018-01-17T04:20:50.903Z,73.10
2018-01-17T04:23:19.043Z,73.10
2018-01-17T04:25:47.173Z,74.00
2018-01-17T04:28:15.383Z,73.30
2018-01-17T04:30:44.273Z,74.10
2018-01-17T04:33:12.448Z,74.00
2018-01-17T04:35:41.351Z,77.60
2018-01-17T04:38:09.451Z,77.70
2018-01-17T04:40:37.580Z,79.90
2018-01-17T04:43:05.695Z,81.10
2018-01-17T04:45:33.808Z,81.40
2018-01-17T04:48:02.698Z,83.30
2018-01-17T04:50:31.615Z,86.30
2018-01-17T04:53:00.487Z,88.20
2018-01-17T04:55:29.395Z,90.10
2018-01-17T04:57:58.267Z,90.70
2018-01-17T05:00:27.195Z,91.20
2018-01-17T05:02:55.299Z,91.10
2018-01-17T05:05:23.446Z,91.70
2018-01-17T05:07:51.556Z,92.00
2018-01-17T05:10:19.663Z,92.10
2018-01-17T05:12:47.783Z,92.40
2018-01-17T05:15:15.943Z,92.10
2018-01-17T05:17:44.083Z,92.70
2018-01-17T05:20:12.195Z,92.80
2018-01-17T05:22:40.311Z,93.00
2018-01-17T05:25:09.197Z,93.00
2018-01-17T05:27:38.063Z,93.10
2018-01-17T05:30:06.200Z,93.00
2018-01-17T05:32:34.365Z,93.00
2018-01-17T05:35:03.247Z,92.90
2018-01-17T05:37:31.372Z,92.90
2018-01-17T05:39:59.500Z,92.70
2018-01-17T05:42:28.379Z,92.60
2018-01-17T05:44:56.491Z,92.50
2018-01-17T05:47:24.638Z,92.40
2018-01-17T05:49:53.503Z,91.60
2018-01-17T05:52:22.366Z,90.80
2018-01-17T05:54:50.507Z,90.30
2018-01-17T05:57:18.667Z,90.70
2018-01-17T05:59:47.558Z,90.30
2018-01-17T06:02:15.680Z,90.30
2018-01-17T06:04:43.786Z,90.40
2018-01-17T06:07:12.689Z,90.40
2018-01-17T06:09:40.843Z,90.10
2018-01-17T06:12:09.760Z,91.00
2018-01-17T06:14:38.631Z,91.10
2018-01-17T06:17:07.542Z,90.70
2018-01-17T06:19:35.703Z,90.70
2018-01-17T06:22:03.823Z,90.80
2018-01-17T06:24:31.961Z,90.50
2018-01-17T06:27:00.856Z,90.90
2018-01-17T06:29:29.028Z,90.80
2018-01-17T06:31:57.915Z,91.00
2018-01-17T06:34:26.028Z,91.00
2018-01-17T06:36:54.164Z,91.10
2018-01-17T06:39:22.254Z,91.40
2018-01-17T06:41:50.520Z,91.50
2018-01-17T06:44:18.619Z,91.70
2018-01-17T06:46:46.719Z,91.70
2018-01-17T06:49:14.859Z,91.60
2018-01-17T06:51:42.972Z,91.70
2018-01-17T06:54:11.088Z,91.80
2018-01-17T06:56:39.959Z,92.00
2018-01-17T06:59:08.075Z,91.80
2018-01-17T07:01:36.199Z,91.40
2018-01-17T07:04:05.066Z,91.30
2018-01-17T07:06:33.194Z,91.30
2018-01-17T07:09:01.301Z,91.40
2018-01-17T07:11:29.414Z,91.40
2018-01-17T07:13:57.598Z,90.90
2018-01-17T07:16:26.477Z,90.30
2018-01-17T07:18:54.575Z,90.50
2018-01-17T07:21:22.691Z,90.70
2018-01-17T07:23:50.808Z,89.70
2018-01-17T07:26:18.929Z,89.60
2018-01-17T07:28:47.067Z,86.30
2018-01-17T07:31:15.182Z,87.70
2018-01-17T07:33:43.287Z,87.50
2018-01-17T07:36:11.417Z,88.10
2018-01-17T07:38:39.535Z,88.60
2018-01-17T07:41:07.663Z,87.90
2018-01-17T07:43:35.779Z,88.60
2018-01-17T07:46:04.681Z,90.10
2018-01-17T07:48:33.803Z,90.10
2018-01-17T07:51:01.915Z,90.20
2018-01-17T07:53:30.807Z,91.30
2018-01-17T07:55:59.018Z,91.10
2018-01-17T07:58:27.879Z,92.10
2018-01-17T08:00:56.798Z,92.50
2018-01-17T08:03:24.948Z,92.50
2018-01-17T08:05:53.833Z,92.20
2018-01-17T08:08:22.703Z,92.20
2018-01-17T08:10:50.871Z,92.30
2018-01-17T08:13:18.968Z,92.20
2018-01-17T08:15:47.081Z,92.00
2018-01-17T08:18:15.212Z,92.00
2018-01-17T08:20:43.321Z,91.60
2018-01-17T08:23:11.455Z,91.40
2018-01-17T08:25:39.584Z,91.00
2018-01-17T08:28:07.736Z,91.20
2018-01-17T08:30:35.880Z,91.30
2018-01-17T08:33:03.999Z,91.10
2018-01-17T08:35:32.980Z,90.30
2018-01-17T08:38:01.836Z,90.20
2018-01-17T08:40:30.733Z,89.10
2018-01-17T08:42:59.638Z,87.60
2018-01-17T08:45:28.531Z,86.30
2018-01-17T08:47:56.647Z,86.10
2018-01-17T08:50:24.789Z,83.80
2018-01-17T08:52:53.657Z,85.80
2018-01-17T08:55:22.529Z,86.70
2018-01-17T08:57:50.916Z,86.70
2018-01-17T09:00:19.028Z,87.70
2018-01-17T09:02:47.159Z,88.40
2018-01-17T09:05:15.259Z,87.50
2018-01-17T09:07:43.427Z,88.90
2018-01-17T09:10:11.601Z,86.80
2018-01-17T09:12:39.689Z,88.20
2018-01-17T09:15:07.806Z,84.90
2018-01-17T09:17:36.038Z,84.50
2018-01-17T09:20:04.928Z,84.90
2018-01-17T09:22:33.814Z,85.10
2018-01-17T09:25:01.927Z,85.10
2018-01-17T09:27:30.045Z,85.80
2018-01-17T09:29:58.952Z,85.90
2018-01-17T09:32:27.220Z,85.70
2018-01-17T09:34:56.091Z,85.90
2018-01-17T09:37:24.976Z,87.60
2018-01-17T09:39:53.113Z,87.50
2018-01-17T09:42:21.219Z,87.50
2018-01-17T09:44:49.437Z,87.60
2018-01-17T09:47:17.555Z,88.50
2018-01-17T09:49:45.660Z,88.10
2018-01-17T09:52:14.555Z,90.70
2018-01-17T09:54:43.422Z,90.70
2018-01-17T09:57:11.582Z,90.70
2018-01-17T09:59:39.689Z,91.40
2018-01-17T10:02:08.558Z,91.80
2018-01-17T10:04:38.191Z,92.30
2018-01-17T10:07:07.059Z,92.20
2018-01-17T10:09:35.277Z,92.10
2018-01-17T10:12:03.379Z,92.40
2018-01-17T10:14:31.506Z,92.30
2018-01-17T10:16:59.662Z,92.30
2018-01-17T10:19:27.816Z,92.20
2018-01-17T10:21:55.924Z,92.30
2018-01-17T10:24:24.811Z,91.20
2018-01-17T10:26:53.695Z,88.20
2018-01-17T10:29:22.585Z,85.90
2018-01-17T10:31:50.716Z,85.90
2018-01-17T10:34:18.847Z,76.80
2018-01-17T10:36:47.004Z,79.20
2018-01-17T10:39:15.127Z,81.60
2018-01-17T10:41:43.256Z,84.30
2018-01-17T10:44:12.135Z,86.80
2018-01-17T10:46:41.027Z,85.50
2018-01-17T10:49:09.903Z,88.20
2018-01-17T10:51:38.027Z,87.70
2018-01-17T10:54:06.136Z,86.50
2018-01-17T10:56:34.355Z,86.80
2018-01-17T10:59:03.236Z,86.80
2018-01-17T11:01:32.123Z,88.00
2018-01-17T11:04:01.014Z,89.00
2018-01-17T11:06:29.924Z,88.90
2018-01-17T11:08:58.799Z,89.60
2018-01-17T11:11:27.680Z,89.90
2018-01-17T11:13:55.829Z,88.90
2018-01-17T11:16:23.943Z,90.00
2018-01-17T11:18:52.815Z,90.20
2018-01-17T11:21:21.755Z,90.10
2018-01-17T11:23:49.925Z,90.90
2018-01-17T11:26:18.048Z,90.20
2018-01-17T11:28:46.184Z,90.10
2018-01-17T11:31:14.313Z,90.40
2018-01-17T11:33:43.187Z,89.70
2018-01-17T11:36:11.316Z,90.30
2018-01-17T11:38:39.447Z,89.90
2018-01-17T11:41:08.372Z,90.50
2018-01-17T11:43:36.532Z,90.40
2018-01-17T11:46:04.646Z,90.10
2018-01-17T11:48:32.789Z,89.30
2018-01-17T11:51:01.647Z,88.40
2018-01-17T11:53:29.755Z,88.40
2018-01-17T11:55:57.891Z,86.30
2018-01-17T11:58:26.000Z,86.40
2018-01-17T12:00:54.127Z,85.70
2018-01-17T12:03:22.241Z,86.60
2018-01-17T12:05:50.372Z,86.40
2018-01-17T12:08:18.489Z,85.70
2018-01-17T12:10:46.628Z,86.50
2018-01-17T12:13:14.738Z,85.30
2018-01-17T12:15:42.864Z,86.10
2018-01-17T12:18:10.976Z,85.70
2018-01-17T12:20:39.170Z,85.50
2018-01-17T12:23:07.278Z,85.90
2018-01-17T12:25:35.416Z,85.00
2018-01-17T12:28:03.575Z,85.90
2018-01-17T12:30:32.420Z,85.50
2018-01-17T12:33:00.562Z,85.30
2018-01-17T12:35:28.679Z,87.10
2018-01-17T12:37:57.567Z,86.50
2018-01-17T12:40:25.678Z,86.20
2018-01-17T12:42:53.795Z,85.30
2018-01-17T12:45:22.073Z,83.20
2018-01-17T12:47:50.173Z,81.60
2018-01-17T12:50:19.051Z,81.60
2018-01-17T12:52:47.267Z,78.80
2018-01-17T12:55:15.395Z,77.50
2018-01-17T12:57:43.548Z,78.40
2018-01-17T13:00:11.660Z,77.80
2018-01-17T13:02:40.577Z,79.70
2018-01-17T13:05:09.446Z,80.40
2018-01-17T13:07:38.356Z,81.10
2018-01-17T13:10:06.463Z,80.90
2018-01-17T13:12:34.584Z,80.90
2018-01-17T13:15:03.501Z,79.70
2018-01-17T13:17:32.366Z,79.00
2018-01-17T13:20:01.254Z,80.90
2018-01-17T13:22:30.123Z,77.70
2018-01-17T13:24:58.346Z,76.70
2018-01-17T13:27:27.647Z,74.00
2018-01-17T13:29:55.788Z,73.10
2018-01-17T13:32:24.659Z,73.50
2018-01-17T13:34:52.766Z,74.10
2018-01-17T13:37:21.647Z,76.00
2018-01-17T13:39:50.526Z,77.90
2018-01-17T13:42:18.661Z,77.70
2018-01-17T13:44:46.769Z,78.00
2018-01-17T13:47:14.986Z,78.00
2018-01-17T13:49:43.096Z,77.60
2018-01-17T13:52:11.232Z,77.80
2018-01-17T13:54:40.099Z,74.40
2018-01-17T13:57:08.983Z,73.00
2018-01-17T13:59:37.900Z,73.20
2018-01-17T14:02:06.023Z,73.00
2018-01-17T14:04:34.152Z,73.50
2018-01-17T14:07:02.267Z,74.00
2018-01-17T14:09:30.395Z,75.00
2018-01-17T14:11:59.282Z,74.00
2018-01-17T14:14:27.403Z,74.00
2018-01-17T14:16:55.739Z,71.70
2018-01-17T14:19:24.617Z,68.30
2018-01-17T14:21:52.803Z,67.90
2018-01-17T14:24:21.694Z,70.70
2018-01-17T14:26:50.554Z,72.10
2018-01-17T14:29:19.455Z,73.80
2018-01-17T14:31:48.354Z,73.60
2018-01-17T14:34:17.303Z,74.30
2018-01-17T14:36:45.377Z,74.30
2018-01-17T14:39:13.516Z,74.60
2018-01-17T14:41:41.623Z,75.10
2018-01-17T14:44:09.735Z,76.50
2018-01-17T14:46:38.627Z,83.00
2018-01-17T14:49:07.529Z,87.00
2018-01-17T14:51:35.708Z,86.60
2018-01-17T14:54:04.598Z,86.70
2018-01-17T14:56:32.747Z,87.00
2018-01-17T14:59:01.640Z,85.40
2018-01-17T15:01:30.522Z,85.10
2018-01-17T15:03:59.411Z,84.20
2018-01-17T15:06:28.308Z,84.60
2018-01-17T15:08:57.207Z,85.00
2018-01-17T15:11:26.164Z,83.80
2018-01-17T15:13:54.313Z,83.80
2018-01-17T15:16:22.415Z,82.80
2018-01-17T15:18:50.560Z,84.00
2018-01-17T15:21:18.667Z,84.90
2018-01-17T15:23:46.887Z,84.30
2018-01-17T15:26:15.747Z,82.50
2018-01-17T15:28:44.670Z,80.80
2018-01-17T15:31:13.560Z,82.00
2018-01-17T15:33:41.668Z,81.70
2018-01-17T15:36:10.221Z,81.40
2018-01-17T15:38:38.323Z,80.90
2018-01-17T15:41:06.456Z,81.50
2018-01-17T15:43:34.575Z,80.90
2018-01-17T15:46:02.703Z,80.50
2018-01-17T15:48:30.856Z,80.80
2018-01-17T15:50:59.768Z,80.60
2018-01-17T15:53:27.893Z,80.60
2018-01-17T15:55:55.995Z,79.60
2018-01-17T15:58:24.910Z,80.30
2018-01-17T16:00:53.019Z,80.10
2018-01-17T16:03:21.156Z,80.00
2018-01-17T16:05:49.290Z,79.50
2018-01-17T16:08:17.411Z,79.60
2018-01-17T16:10:45.527Z,78.60
2018-01-17T16:13:13.653Z,78.30
2018-01-17T16:15:41.766Z,78.80
2018-01-17T16:18:09.889Z,78.00
2018-01-17T16:20:38.012Z,76.60
2018-01-17T16:23:06.161Z,76.90
2018-01-17T16:25:34.274Z,77.00
2018-01-17T16:28:02.408Z,78.80
2018-01-17T16:30:30.565Z,80.50
2018-01-17T16:32:58.700Z,81.60
2018-01-17T16:35:26.830Z,81.90
2018-01-17T16:37:54.939Z,83.00
2018-01-17T16:40:23.070Z,83.20
2018-01-17T16:42:51.176Z,83.90
2018-01-17T16:45:19.303Z,82.60
2018-01-17T16:47:47.474Z,82.80
2018-01-17T16:50:15.592Z,82.30
2018-01-17T16:52:43.823Z,81.70
2018-01-17T16:55:11.940Z,80.00
2018-01-17T16:57:40.059Z,79.90
2018-01-17T17:00:08.184Z,79.70
2018-01-17T17:02:36.416Z,77.20
2018-01-17T17:05:05.279Z,76.00
2018-01-17T17:07:34.167Z,75.00
2018-01-17T17:10:02.292Z,75.10
2018-01-17T17:12:30.443Z,75.60
2018-01-17T17:14:58.559Z,75.50
2018-01-17T17:17:26.686Z,76.00
2018-01-17T17:19:55.561Z,76.90
2018-01-17T17:22:24.453Z,77.40
2018-01-17T17:24:53.336Z,77.70
2018-01-17T17:27:22.215Z,78.60
2018-01-17T17:29:50.344Z,78.20
2018-01-17T17:32:18.480Z,78.20
2018-01-17T17:34:47.376Z,78.60
2018-01-17T17:37:16.272Z,78.80
2018-01-17T17:39:44.391Z,78.50
2018-01-17T17:42:12.515Z,78.10
2018-01-17T17:44:41.388Z,77.30
2018-01-17T17:47:10.311Z,77.60
2018-01-17T17:49:38.428Z,77.80
2018-01-17T17:52:06.556Z,77.30
2018-01-17T17:54:34.678Z,79.70
2018-01-17T17:57:02.828Z,80.00
2018-01-17T17:59:30.943Z,77.10
2018-01-17T18:01:59.839Z,77.20
2018-01-17T18:04:28.722Z,76.60
2018-01-17T18:06:56.898Z,76.50
2018-01-17T18:09:25.013Z,77.60
2018-01-17T18:11:53.155Z,76.60
2018-01-17T18:14:22.032Z,77.00
2018-01-17T18:16:50.170Z,77.20
2018-01-17T18:19:18.276Z,77.90
2018-01-17T18:21:46.410Z,76.50
2018-01-17T18:24:14.519Z,76.20
2018-01-17T18:26:42.667Z,75.30
2018-01-17T18:29:10.776Z,74.90
2018-01-17T18:31:39.683Z,75.10
2018-01-17T18:34:07.804Z,75.10
2018-01-17T18:36:35.928Z,73.10
2018-01-17T18:39:04.838Z,73.90
2018-01-17T18:41:32.947Z,73.90
2018-01-17T18:44:01.187Z,73.30
2018-01-17T18:46:29.283Z,72.50
2018-01-17T18:48:57.416Z,72.60
2018-01-17T18:51:26.291Z,70.50
2018-01-17T18:53:55.199Z,71.30
2018-01-17T18:56:24.059Z,71.70
2018-01-17T18:58:52.191Z,70.10
2018-01-17T19:01:20.317Z,70.40
2018-01-17T19:03:48.442Z,70.60
2018-01-17T19:06:16.555Z,70.40
2018-01-17T19:08:44.682Z,70.10
2018-01-17T19:11:12.796Z,69.60
2018-01-17T19:13:40.913Z,69.10
2018-01-17T19:16:09.031Z,70.30
2018-01-17T19:18:37.151Z,69.30
2018-01-17T19:21:05.338Z,69.30
2018-01-17T19:23:33.460Z,69.60
2018-01-17T19:26:01.584Z,68.90
2018-01-17T19:28:29.700Z,69.70
2018-01-17T19:30:57.803Z,69.90
2018-01-17T19:33:26.695Z,69.50
2018-01-17T19:35:55.583Z,69.40
2018-01-17T19:38:24.504Z,70.00
2018-01-17T19:40:52.616Z,69.70
2018-01-17T19:43:20.850Z,70.20
2018-01-17T19:45:49.730Z,70.20
2018-01-17T19:48:17.851Z,70.70
2018-01-17T19:50:45.971Z,70.20
2018-01-17T19:53:14.855Z,70.40
2018-01-17T19:55:43.731Z,70.70
2018-01-17T19:58:11.872Z,70.80
2018-01-17T20:00:39.996Z,70.90
2018-01-17T20:03:08.875Z,71.20
2018-01-17T20:05:37.767Z,70.40
2018-01-17T20:08:05.880Z,70.50
2018-01-17T20:10:34.011Z,70.50
2018-01-17T20:13:02.988Z,70.20
2018-01-17T20:15:31.217Z,71.00
2018-01-17T20:17:59.389Z,69.70
2018-01-17T20:20:27.500Z,70.80
2018-01-17T20:23:01.369Z,70.60
2018-01-17T20:25:29.484Z,70.10
2018-01-17T20:27:57.720Z,70.80
2018-01-17T20:30:25.864Z,69.80
2018-01-17T20:32:54.738Z,69.50
2018-01-17T20:35:22.896Z,69.70
2018-01-17T20:37:51.006Z,69.30
2018-01-17T20:40:19.916Z,68.80
2018-01-17T20:42:48.800Z,69.40
2018-01-17T20:45:16.904Z,68.90
2018-01-17T20:47:45.040Z,68.20
2018-01-17T20:50:13.168Z,69.50
2018-01-17T20:52:41.270Z,68.70
2018-01-17T20:55:10.172Z,68.30
2018-01-17T20:57:38.291Z,67.90
2018-01-17T21:00:06.419Z,67.50
2018-01-17T21:02:35.311Z,67.30
2018-01-17T21:05:04.213Z,67.20
2018-01-17T21:07:32.344Z,67.20
2018-01-17T21:10:00.448Z,68.10
2018-01-17T21:12:29.363Z,67.80
2018-01-17T21:14:57.478Z,68.00
2018-01-17T21:17:25.611Z,67.90
2018-01-17T21:19:53.756Z,68.50
2018-01-17T21:22:22.633Z,68.10
2018-01-17T21:24:51.568Z,68.90
2018-01-17T21:27:19.735Z,68.50
2018-01-17T21:29:47.844Z,69.70
2018-01-17T21:32:15.948Z,69.60
2018-01-17T21:34:44.847Z,71.10
2018-01-17T21:37:13.740Z,70.40
2018-01-17T21:39:42.623Z,71.00
2018-01-17T21:42:17.074Z,70.90
2018-01-17T21:44:50.834Z,70.80
2018-01-17T21:47:18.993Z,70.80
2018-01-17T21:49:47.104Z,71.40
2018-01-17T21:52:16.015Z,71.80
2018-01-17T21:54:44.920Z,72.10
2018-01-17T21:57:13.084Z,72.10
2018-01-17T21:59:41.177Z,71.70
2018-01-17T22:02:09.312Z,72.40
2018-01-17T22:04:38.212Z,72.30
2018-01-17T22:07:06.344Z,72.30
2018-01-17T22:09:34.487Z,72.30
2018-01-17T22:12:02.611Z,72.30
2018-01-17T22:14:31.495Z,72.50
2018-01-17T22:16:59.639Z,72.40
2018-01-17T22:19:27.744Z,72.60
2018-01-17T22:21:56.620Z,72.50
2018-01-17T22:24:24.757Z,72.50
2018-01-17T22:26:52.912Z,72.50
2018-01-17T22:29:21.076Z,72.30
2018-01-17T22:31:49.374Z,72.60
2018-01-17T22:34:17.506Z,73.40
2018-01-17T22:36:45.623Z,73.80
2018-01-17T22:39:13.890Z,73.30
2018-01-17T22:41:42.032Z,73.00
2018-01-17T22:44:10.260Z,73.40
2018-01-17T22:46:38.455Z,73.60
2018-01-17T22:49:06.599Z,73.60
2018-01-17T22:51:34.742Z,73.60
2018-01-17T22:54:03.675Z,73.40
2018-01-17T22:56:31.833Z,73.30
2018-01-17T22:58:59.958Z,73.50
2018-01-17T23:01:28.086Z,73.80
2018-01-17T23:03:56.242Z,73.20
2018-01-17T23:06:25.240Z,73.20
2018-01-17T23:08:54.231Z,72.70
2018-01-17T23:11:22.406Z,73.30
2018-01-17T23:13:51.327Z,73.10
2018-01-17T23:16:19.504Z,73.20
2018-01-17T23:18:47.624Z,73.00
2018-01-17T23:21:16.536Z,73.10
2018-01-17T23:23:45.014Z,73.10
2018-01-17T23:26:13.135Z,73.30
2018-01-17T23:28:41.256Z,73.20
2018-01-17T23:31:09.390Z,73.50
2018-01-17T23:33:37.582Z,73.30
2018-01-17T23:36:06.484Z,73.10
2018-01-17T23:38:35.380Z,73.70
2018-01-17T23:41:03.594Z,73.60
2018-01-17T23:43:31.719Z,73.30
2018-01-17T23:46:00.604Z,73.40
2018-01-17T23:48:29.492Z,73.80
2018-01-17T23:50:58.379Z,73.00
2018-01-17T23:53:27.271Z,73.00
2018-01-17T23:55:56.247Z,73.10
2018-01-17T23:58:24.482Z,73.00
